createdAt,value
2022-08-16T00:01:52.273Z,99266.88
2022-08-16T00:04:20.984Z,99267.26
2022-08-16T00:06:49.855Z,99270.33
2022-08-16T00:09:18.689Z,99266.11
2022-08-16T00:11:48.026Z,99275.50
2022-08-16T00:14:19.894Z,99270.45
2022-08-16T00:17:05.812Z,99274.22
2022-08-16T00:19:22.509Z,99281.11
2022-08-16T00:21:54.515Z,99284.08
2022-08-16T00:24:31.381Z,99291.16
2022-08-16T00:26:54.322Z,99284.64
2022-08-16T00:29:24.746Z,99279.43
2022-08-16T00:31:59.720Z,99279.92
2022-08-16T00:34:44.088Z,99278.64
2022-08-16T00:36:56.721Z,99279.05
2022-08-16T00:39:27.388Z,99279.70
2022-08-16T00:41:57.715Z,99288.12
2022-08-16T00:44:31.805Z,99286.52
2022-08-16T00:47:06.110Z,99283.20
2022-08-16T00:49:39.783Z,99289.63
2022-08-16T00:52:01.310Z,99281.13
2022-08-16T00:54:32.962Z,99285.15
2022-08-16T00:57:05.100Z,99287.13
2022-08-16T00:59:35.614Z,99290.09
2022-08-16T01:02:30.238Z,99289.12
2022-08-16T01:04:38.016Z,99288.66
2022-08-16T01:07:07.732Z,99281.74
2022-08-16T01:09:38.433Z,99290.98
2022-08-16T01:12:11.051Z,99292.27
2022-08-16T01:14:48.916Z,99294.30
2022-08-16T01:17:20.873Z,99295.50
2022-08-16T01:19:52.989Z,99291.85
2022-08-16T01:22:59.110Z,99293.75
2022-08-16T01:24:56.779Z,99301.78
2022-08-16T01:27:27.993Z,99299.61
2022-08-16T01:30:19.316Z,99303.16
2022-08-16T01:32:41.088Z,99301.72
2022-08-16T01:35:16.724Z,99309.10
2022-08-16T01:37:43.434Z,99301.95
2022-08-16T01:40:15.498Z,99306.33
2022-08-16T01:42:48.205Z,99297.88
2022-08-16T01:45:19.706Z,99297.04
2022-08-16T01:47:51.188Z,99301.06
2022-08-16T01:50:43.351Z,99302.58
2022-08-16T01:52:56.155Z,99293.14
2022-08-16T01:55:35.932Z,99296.88
2022-08-16T01:58:07.262Z,99302.88
2022-08-16T02:00:37.732Z,99306.57
2022-08-16T02:03:12.537Z,99313.63
2022-08-16T02:05:46.605Z,99314.41
2022-08-16T02:08:33.782Z,99319.30
2022-08-16T02:10:42.477Z,99317.95
2022-08-16T02:13:12.978Z,99318.67
2022-08-16T02:15:43.913Z,99318.86
2022-08-16T02:18:14.008Z,99324.00
2022-08-16T02:20:45.959Z,99327.17
2022-08-16T02:23:17.139Z,99328.19
2022-08-16T02:25:52.730Z,99330.72
2022-08-16T02:28:19.176Z,99331.97
2022-08-16T02:30:51.718Z,99333.20
2022-08-16T02:33:24.708Z,99330.91
2022-08-16T02:35:58.219Z,99332.24
2022-08-16T02:38:23.441Z,99330.43
2022-08-16T02:40:54.608Z,99329.75
2022-08-16T02:43:26.603Z,99332.06
2022-08-16T02:45:55.256Z,99325.73
2022-08-16T02:48:28.859Z,99319.77
2022-08-16T02:51:05.933Z,99315.09
2022-08-16T02:53:26.271Z,99316.16
2022-08-16T02:55:55.456Z,99310.82
2022-08-16T02:58:25.009Z,99311.68
2022-08-16T03:00:56.104Z,99307.52
2022-08-16T03:04:39.727Z,99315.54
2022-08-16T03:05:58.248Z,99316.58
2022-08-16T03:08:51.787Z,99313.72
2022-08-16T03:10:58.404Z,99318.23
2022-08-16T03:13:28.586Z,99320.94
2022-08-16T03:15:59.153Z,99326.79
2022-08-16T03:18:34.563Z,99328.95
2022-08-16T03:20:59.843Z,99327.47
2022-08-16T03:23:35.776Z,99331.81
2022-08-16T03:26:00.837Z,99332.81
2022-08-16T03:28:29.591Z,99339.34
2022-08-16T03:30:59.605Z,99340.23
2022-08-16T03:33:30.468Z,99340.08
2022-08-16T03:36:30.138Z,99339.09
2022-08-16T03:38:33.962Z,99341.95
2022-08-16T03:41:24.587Z,99347.30
2022-08-16T03:43:51.121Z,99345.98
2022-08-16T03:46:08.061Z,99355.72
2022-08-16T03:48:41.253Z,99356.06
2022-08-16T03:51:14.847Z,99363.59
2022-08-16T03:53:45.466Z,99369.59
2022-08-16T03:56:19.993Z,99365.90
2022-08-16T03:58:48.413Z,99358.19
2022-08-16T04:01:18.350Z,99362.52
2022-08-16T04:03:47.319Z,99360.35
2022-08-16T04:06:17.733Z,99363.73
2022-08-16T04:08:49.050Z,99372.38
2022-08-16T04:11:18.056Z,99374.55
2022-08-16T04:14:01.311Z,99377.72
2022-08-16T04:16:26.794Z,99382.56
2022-08-16T04:18:50.343Z,99384.21
2022-08-16T04:21:29.426Z,99389.24
2022-08-16T04:23:50.118Z,99403.92
2022-08-16T04:26:20.562Z,99405.09
2022-08-16T04:28:53.459Z,99412.76
2022-08-16T04:31:21.926Z,99405.59
2022-08-16T04:33:51.898Z,99408.07
2022-08-16T04:36:24.296Z,99402.83
2022-08-16T04:38:53.888Z,99409.64
2022-08-16T04:41:32.874Z,99414.13
2022-08-16T04:43:53.900Z,99417.22
2022-08-16T04:47:00.674Z,99408.32
2022-08-16T04:48:54.754Z,99409.61
2022-08-16T04:51:24.316Z,99413.52
2022-08-16T04:53:54.674Z,99411.67
2022-08-16T04:56:24.586Z,99416.07
2022-08-16T04:58:57.686Z,99409.98
2022-08-16T05:01:25.065Z,99420.50
2022-08-16T05:04:00.236Z,99414.28
2022-08-16T05:06:42.287Z,99422.20
2022-08-16T05:08:56.991Z,99421.56
2022-08-16T05:11:32.046Z,99424.08
2022-08-16T05:14:06.923Z,99419.22
2022-08-16T05:16:31.543Z,99426.84
2022-08-16T05:19:02.276Z,99419.97
2022-08-16T05:21:37.956Z,99424.34
2022-08-16T05:24:06.149Z,99430.27
2022-08-16T05:26:43.317Z,99427.16
2022-08-16T05:29:11.088Z,99432.70
2022-08-16T05:31:47.929Z,99430.63
2022-08-16T05:34:19.749Z,99437.47
2022-08-16T05:36:40.206Z,99436.94
2022-08-16T05:39:10.710Z,99447.92
2022-08-16T05:41:45.237Z,99442.34
2022-08-16T05:44:22.981Z,99453.62
2022-08-16T05:46:43.591Z,99453.84
2022-08-16T05:49:22.426Z,99454.83
2022-08-16T05:51:47.758Z,99458.20
2022-08-16T05:54:25.199Z,99458.88
2022-08-16T05:56:50.126Z,99454.84
2022-08-16T05:59:19.655Z,99449.88
2022-08-16T06:01:53.179Z,99449.38
2022-08-16T06:04:35.128Z,99460.22
2022-08-16T06:06:56.709Z,99465.34
2022-08-16T06:09:43.838Z,99463.13
2022-08-16T06:12:00.110Z,99464.17
2022-08-16T06:14:30.110Z,99460.57
2022-08-16T06:17:05.576Z,99457.30
2022-08-16T06:19:33.800Z,99461.02
2022-08-16T06:22:03.783Z,99457.52
2022-08-16T06:24:53.843Z,99457.17
2022-08-16T06:27:03.862Z,99460.45
2022-08-16T06:29:34.052Z,99463.25
2022-08-16T06:32:04.313Z,99465.55
2022-08-16T06:34:56.168Z,99466.68
2022-08-16T06:37:05.397Z,99473.05
2022-08-16T06:39:49.203Z,99473.64
2022-08-16T06:42:09.596Z,99477.83
2022-08-16T06:44:49.087Z,99488.02
2022-08-16T06:47:53.450Z,99487.52
2022-08-16T06:49:58.986Z,99488.63
2022-08-16T06:52:57.885Z,99491.38
2022-08-16T06:55:03.031Z,99493.06
2022-08-16T06:57:31.833Z,99495.82
2022-08-16T07:00:02.636Z,99498.92
2022-08-16T07:02:35.810Z,99498.02
2022-08-16T07:05:14.990Z,99500.08
2022-08-16T07:07:37.412Z,99505.61
2022-08-16T07:10:08.519Z,99497.89
2022-08-16T07:13:03.457Z,99502.25
2022-08-16T07:15:09.830Z,99500.12
2022-08-16T07:17:40.555Z,99496.67
2022-08-16T07:20:35.432Z,99505.05
2022-08-16T07:22:52.592Z,99500.20
2022-08-16T07:25:17.876Z,99497.72
2022-08-16T07:27:48.450Z,99496.15
2022-08-16T07:30:39.841Z,99497.06
2022-08-16T07:32:52.231Z,99496.28
2022-08-16T07:35:21.277Z,99499.80
2022-08-16T07:37:50.142Z,99493.09
2022-08-16T07:40:58.082Z,99492.13
2022-08-16T07:43:00.137Z,99500.38
2022-08-16T07:45:29.175Z,99502.27
2022-08-16T07:47:59.836Z,99502.04
2022-08-16T07:50:55.607Z,99503.54
2022-08-16T07:53:02.090Z,99496.16
2022-08-16T07:55:46.065Z,99504.00
2022-08-16T07:58:03.234Z,99504.95
2022-08-16T08:00:34.587Z,99499.69
2022-08-16T08:03:04.080Z,99502.69
2022-08-16T08:05:36.885Z,99505.05
2022-08-16T08:08:11.969Z,99495.59
2022-08-16T08:10:34.601Z,99492.98
2022-08-16T08:13:04.449Z,99503.29
2022-08-16T08:15:34.402Z,99501.97
2022-08-16T08:18:29.305Z,99511.49
2022-08-16T08:20:35.693Z,99504.63
2022-08-16T08:23:06.601Z,99504.47
2022-08-16T08:25:54.830Z,99509.32
2022-08-16T08:28:16.544Z,99516.33
2022-08-16T08:30:51.542Z,99519.44
2022-08-16T08:33:17.070Z,99510.66
2022-08-16T08:35:45.993Z,99512.94
2022-08-16T08:38:16.998Z,99513.22
2022-08-16T08:40:48.510Z,99519.44
2022-08-16T08:43:18.240Z,99513.52
2022-08-16T08:45:52.756Z,99513.09
2022-08-16T08:48:34.142Z,99520.08
2022-08-16T08:50:52.380Z,99513.08
2022-08-16T08:53:21.869Z,99515.02
2022-08-16T08:55:58.813Z,99520.07
2022-08-16T08:58:22.866Z,99529.22
2022-08-16T09:01:01.264Z,99533.19
2022-08-16T09:03:32.484Z,99527.75
2022-08-16T09:06:03.389Z,99520.78
2022-08-16T09:08:35.025Z,99525.66
2022-08-16T09:11:07.436Z,99522.95
2022-08-16T09:13:38.482Z,99527.55
2022-08-16T09:16:10.313Z,99526.50
2022-08-16T09:18:40.999Z,99525.68
2022-08-16T09:21:11.841Z,99528.05
2022-08-16T09:23:40.764Z,99531.44
2022-08-16T09:26:44.258Z,99525.83
2022-08-16T09:29:15.580Z,99521.93
2022-08-16T09:31:19.794Z,99528.42
2022-08-16T09:33:51.942Z,99524.27
2022-08-16T09:36:32.091Z,99529.19
2022-08-16T09:38:50.978Z,99532.61
2022-08-16T09:41:19.733Z,99525.70
2022-08-16T09:43:59.177Z,99523.52
2022-08-16T09:46:44.867Z,99521.81
2022-08-16T09:48:51.187Z,99526.63
2022-08-16T09:51:20.238Z,99525.75
2022-08-16T09:53:53.645Z,99525.98
2022-08-16T09:56:22.738Z,99526.96
2022-08-16T09:59:03.458Z,99519.41
2022-08-16T10:01:24.606Z,99524.84
2022-08-16T10:04:02.482Z,99522.70
2022-08-16T10:06:25.726Z,99529.97
2022-08-16T10:09:05.644Z,99533.58
2022-08-16T10:11:50.467Z,99529.13
2022-08-16T10:14:16.649Z,99533.14
2022-08-16T10:16:48.956Z,99531.30
2022-08-16T10:19:19.383Z,99532.17
2022-08-16T10:21:56.200Z,99524.72
2022-08-16T10:24:28.540Z,99527.48
2022-08-16T10:27:18.897Z,99520.96
2022-08-16T10:29:21.195Z,99513.00
2022-08-16T10:31:53.510Z,99519.47
2022-08-16T10:34:31.125Z,99518.64
2022-08-16T10:36:54.302Z,99522.73
2022-08-16T10:39:21.041Z,99527.63
2022-08-16T10:41:51.020Z,99519.54
2022-08-16T10:44:19.961Z,99522.17
2022-08-16T10:46:49.249Z,99532.09
2022-08-16T10:49:18.500Z,99536.70
2022-08-16T10:52:02.855Z,99532.66
2022-08-16T10:54:29.568Z,99528.71
2022-08-16T10:56:55.303Z,99526.26
2022-08-16T10:59:43.999Z,99528.47
2022-08-16T11:05:05.402Z,99525.69
2022-08-16T11:07:08.076Z,99525.98
2022-08-16T11:09:25.481Z,99525.95
2022-08-16T11:12:13.224Z,99520.37
2022-08-16T11:14:23.860Z,99518.20
2022-08-16T11:17:11.085Z,99519.09
2022-08-16T11:19:23.048Z,99516.70
2022-08-16T11:24:41.216Z,99516.97
2022-08-16T11:29:26.755Z,99516.78
2022-08-16T11:31:54.031Z,99513.27
2022-08-16T11:34:23.126Z,99512.38
2022-08-16T11:37:01.161Z,99511.59
2022-08-16T11:39:23.883Z,99511.84
2022-08-16T11:41:53.124Z,99513.23
2022-08-16T11:44:52.976Z,99515.41
2022-08-16T11:46:53.750Z,99512.67
2022-08-16T11:49:22.542Z,99515.41
2022-08-16T11:51:51.688Z,99521.44
2022-08-16T11:54:22.868Z,99523.34
2022-08-16T11:56:57.422Z,99513.63
2022-08-16T11:59:25.451Z,99514.05
2022-08-16T12:01:59.572Z,99513.49
2022-08-16T12:04:24.947Z,99512.38
2022-08-16T12:06:54.858Z,99515.86
2022-08-16T12:09:24.921Z,99508.48
2022-08-16T12:11:54.659Z,99498.66
2022-08-16T12:14:23.519Z,99498.36
2022-08-16T12:16:55.768Z,99494.56
2022-08-16T12:19:34.217Z,99494.30
2022-08-16T12:21:58.281Z,99497.00
2022-08-16T12:24:28.480Z,99492.36
2022-08-16T12:26:57.796Z,99494.32
2022-08-16T12:29:29.354Z,99490.37
2022-08-16T12:32:01.067Z,99489.55
2022-08-16T12:34:29.681Z,99491.13
2022-08-16T12:36:59.547Z,99489.61
2022-08-16T12:39:29.326Z,99497.75
2022-08-16T12:41:58.120Z,99493.64
2022-08-16T12:44:31.334Z,99491.20
2022-08-16T12:47:12.287Z,99477.96
2022-08-16T12:49:44.295Z,99477.38
2022-08-16T12:52:32.768Z,99479.63
2022-08-16T12:54:45.616Z,99470.53
2022-08-16T12:57:15.972Z,99467.82
2022-08-16T12:59:46.039Z,99464.28
2022-08-16T13:02:33.195Z,99467.14
2022-08-16T13:04:45.237Z,99466.92
2022-08-16T13:07:14.170Z,99464.95
2022-08-16T13:09:46.016Z,99461.05
2022-08-16T13:12:22.382Z,99461.50
2022-08-16T13:14:53.431Z,99463.61
2022-08-16T13:17:26.441Z,99465.75
2022-08-16T13:20:11.276Z,99459.33
2022-08-16T13:22:26.040Z,99461.98
2022-08-16T13:24:55.532Z,99462.43
2022-08-16T13:28:02.604Z,99464.02
2022-08-16T13:29:57.518Z,99465.63
2022-08-16T13:32:39.393Z,99464.70
2022-08-16T13:34:57.236Z,99461.50
2022-08-16T13:37:26.134Z,99467.94
2022-08-16T13:39:54.957Z,99462.49
2022-08-16T13:42:25.294Z,99458.53
2022-08-16T13:44:58.736Z,99457.70
2022-08-16T13:47:30.010Z,99459.77
2022-08-16T13:49:57.841Z,99460.19
2022-08-16T13:52:33.492Z,99459.70
2022-08-16T13:54:57.269Z,99448.14
2022-08-16T13:57:53.615Z,99439.16
2022-08-16T13:59:57.636Z,99451.00
2022-08-16T14:02:26.950Z,99444.33
2022-08-16T14:05:01.910Z,99440.12
2022-08-16T14:07:26.920Z,99440.70
2022-08-16T14:09:57.418Z,99433.05
2022-08-16T14:12:30.593Z,99433.72
2022-08-16T14:14:59.704Z,99430.12
2022-08-16T14:17:29.532Z,99427.88
2022-08-16T14:20:00.461Z,99432.88
2022-08-16T14:22:35.641Z,99430.50
2022-08-16T14:25:03.460Z,99424.76
2022-08-16T14:27:33.582Z,99424.44
2022-08-16T14:30:02.866Z,99426.12
2022-08-16T14:32:33.664Z,99428.35
2022-08-16T14:35:04.204Z,99434.88
2022-08-16T14:37:33.161Z,99440.09
2022-08-16T14:40:03.515Z,99433.83
2022-08-16T14:42:32.462Z,99441.19
2022-08-16T14:45:02.887Z,99444.23
2022-08-16T14:47:35.006Z,99442.04
2022-08-16T14:50:02.024Z,99444.47
2022-08-16T14:52:54.019Z,99447.72
2022-08-16T14:55:01.324Z,99439.23
2022-08-16T14:57:30.138Z,99447.74
2022-08-16T15:00:09.427Z,99452.11
2022-08-16T15:02:41.259Z,99446.93
2022-08-16T15:05:10.793Z,99441.48
2022-08-16T15:07:40.698Z,99449.12
2022-08-16T15:10:21.769Z,99448.59
2022-08-16T15:12:40.548Z,99452.67
2022-08-16T15:15:16.475Z,99446.14
2022-08-16T15:17:54.206Z,99449.98
2022-08-16T15:20:15.259Z,99442.29
2022-08-16T15:22:46.676Z,99440.94
2022-08-16T15:25:17.747Z,99439.56
2022-08-16T15:27:55.418Z,99444.22
2022-08-16T15:30:56.776Z,99445.84
2022-08-16T15:32:49.461Z,99437.89
2022-08-16T15:35:19.364Z,99441.99
2022-08-16T15:37:54.682Z,99439.13
2022-08-16T15:40:32.119Z,99446.43
2022-08-16T15:42:54.118Z,99442.11
2022-08-16T15:45:40.773Z,99440.70
2022-08-16T15:48:17.251Z,99443.59
2022-08-16T15:50:46.189Z,99443.21
2022-08-16T15:53:16.488Z,99447.95
2022-08-16T15:55:46.105Z,99450.39
2022-08-16T15:58:35.648Z,99444.09
2022-08-16T16:00:46.767Z,99450.72
2022-08-16T16:03:17.508Z,99448.64
2022-08-16T16:05:47.626Z,99448.62
2022-08-16T16:08:24.209Z,99451.67
2022-08-16T16:10:54.423Z,99454.91
2022-08-16T16:13:20.309Z,99449.38
2022-08-16T16:15:50.511Z,99448.36
2022-08-16T16:18:20.107Z,99448.90
2022-08-16T16:20:50.346Z,99452.92
2022-08-16T16:23:23.520Z,99457.17
2022-08-16T16:25:52.906Z,99460.96
2022-08-16T16:28:46.307Z,99456.70
2022-08-16T16:30:56.546Z,99459.48
2022-08-16T16:33:25.143Z,99465.27
2022-08-16T16:35:57.201Z,99471.66
2022-08-16T16:38:29.141Z,99469.27
2022-08-16T16:40:59.363Z,99469.90
2022-08-16T16:43:31.809Z,99469.78
2022-08-16T16:46:01.672Z,99470.98
2022-08-16T16:48:35.064Z,99468.82
2022-08-16T16:51:05.109Z,99475.13
2022-08-16T16:53:37.657Z,99469.87
2022-08-16T16:56:08.804Z,99470.69
2022-08-16T16:58:54.247Z,99471.11
2022-08-16T17:01:56.559Z,99475.17
2022-08-16T17:03:54.700Z,99477.45
2022-08-16T17:06:24.654Z,99475.70
2022-08-16T17:08:53.757Z,99475.31
2022-08-16T17:11:38.413Z,99481.05
2022-08-16T17:14:17.324Z,99479.28
2022-08-16T17:16:46.314Z,99483.23
2022-08-16T17:19:17.377Z,99485.30
2022-08-16T17:21:42.061Z,99483.03
2022-08-16T17:24:18.002Z,99481.99
2022-08-16T17:26:41.278Z,99489.64
2022-08-16T17:29:12.566Z,99487.12
2022-08-16T17:31:43.162Z,99494.19
2022-08-16T17:34:28.859Z,99496.95
2022-08-16T17:36:52.170Z,99491.03
2022-08-16T17:39:14.734Z,99489.87
2022-08-16T17:41:44.836Z,99487.83
2022-08-16T17:44:13.770Z,99494.09
2022-08-16T17:46:52.547Z,99494.94
2022-08-16T17:49:13.585Z,99497.02
2022-08-16T17:51:42.337Z,99496.72
2022-08-16T17:54:18.458Z,99511.35
2022-08-16T17:56:41.536Z,99503.88
2022-08-16T17:59:10.630Z,99507.88
2022-08-16T18:01:39.573Z,99504.08
2022-08-16T18:04:10.031Z,99509.70
2022-08-16T18:06:40.559Z,99506.39
2022-08-16T18:09:09.505Z,99512.48
2022-08-16T18:11:40.821Z,99512.41
2022-08-16T18:14:10.928Z,99509.00
2022-08-16T18:16:41.467Z,99512.05
2022-08-16T18:19:10.769Z,99518.45
2022-08-16T18:21:57.658Z,99520.24
2022-08-16T18:24:28.343Z,99518.80
2022-08-16T18:27:24.779Z,99525.28
2022-08-16T18:29:28.393Z,99530.44
2022-08-16T18:31:57.264Z,99533.76
2022-08-16T18:34:25.974Z,99536.34
2022-08-16T18:36:57.051Z,99537.90
2022-08-16T18:39:26.246Z,99540.77
2022-08-16T18:41:55.007Z,99543.64
2022-08-16T18:44:29.211Z,99542.55
2022-08-16T18:46:54.320Z,99541.70
2022-08-16T18:49:23.060Z,99543.20
2022-08-16T18:51:51.828Z,99543.97
2022-08-16T18:54:20.614Z,99542.04
2022-08-16T18:56:55.105Z,99545.19
2022-08-16T18:59:21.185Z,99541.41
2022-08-16T19:01:51.205Z,99548.61
2022-08-16T19:04:56.455Z,99552.92
2022-08-16T19:06:50.516Z,99549.20
2022-08-16T19:09:19.332Z,99541.52
2022-08-16T19:11:48.343Z,99552.97
2022-08-16T19:14:17.096Z,99554.73
2022-08-16T19:16:46.855Z,99557.78
2022-08-16T19:19:16.768Z,99558.69
2022-08-16T19:21:45.503Z,99553.93
2022-08-16T19:24:17.869Z,99558.02
2022-08-16T19:26:45.891Z,99557.81
2022-08-16T19:29:14.651Z,99562.79
2022-08-16T19:31:43.941Z,99565.94
2022-08-16T19:34:14.319Z,99568.63
2022-08-16T19:36:43.111Z,99562.40
2022-08-16T19:39:15.211Z,99560.84
2022-08-16T19:41:45.469Z,99569.47
2022-08-16T19:44:14.575Z,99571.64
2022-08-16T19:46:45.004Z,99568.63
2022-08-16T19:49:16.406Z,99570.81
2022-08-16T19:51:44.636Z,99572.77
2022-08-16T19:54:13.451Z,99569.88
2022-08-16T19:56:42.273Z,99571.31
2022-08-16T19:59:20.574Z,99577.24
2022-08-16T20:01:43.004Z,99575.05
2022-08-16T20:04:13.176Z,99564.65
2022-08-16T20:06:43.153Z,99570.13
2022-08-16T20:09:14.892Z,99570.44
2022-08-16T20:11:42.604Z,99572.07
2022-08-16T20:14:12.004Z,99571.66
2022-08-16T20:16:42.382Z,99575.45
2022-08-16T20:19:11.186Z,99573.92
2022-08-16T20:21:39.948Z,99582.44
2022-08-16T20:24:32.600Z,99583.55
2022-08-16T20:26:39.099Z,99584.53
2022-08-16T20:29:07.909Z,99584.41
2022-08-16T20:31:36.652Z,99588.02
2022-08-16T20:34:10.504Z,99585.50
2022-08-16T20:36:39.228Z,99583.40
2022-08-16T20:39:10.705Z,99583.34
2022-08-16T20:41:39.940Z,99584.45
2022-08-16T20:44:10.220Z,99579.13
2022-08-16T20:46:40.018Z,99590.09
2022-08-16T20:49:10.180Z,99590.41
2022-08-16T20:51:50.891Z,99581.14
2022-08-16T20:54:11.644Z,99584.53
2022-08-16T20:56:42.018Z,99586.90
2022-08-16T20:59:10.800Z,99590.16
2022-08-16T21:01:47.171Z,99593.13
2022-08-16T21:04:10.467Z,99590.95
2022-08-16T21:06:42.750Z,99590.70
2022-08-16T21:09:13.136Z,99590.57
2022-08-16T21:11:41.867Z,99593.83
2022-08-16T21:14:11.874Z,99597.28
2022-08-16T21:16:40.792Z,99596.53
2022-08-16T21:19:09.604Z,99594.88
2022-08-16T21:21:38.337Z,99593.20
2022-08-16T21:24:07.148Z,99595.38
2022-08-16T21:26:39.062Z,99594.09
2022-08-16T21:29:11.153Z,99600.68
2022-08-16T21:31:37.990Z,99603.67
2022-08-16T21:34:06.798Z,99595.56
2022-08-16T21:36:36.662Z,99597.61
2022-08-16T21:39:07.001Z,99593.62
2022-08-16T21:41:38.445Z,99595.99
2022-08-16T21:44:07.347Z,99596.84
2022-08-16T21:46:36.100Z,99599.53
2022-08-16T21:49:06.827Z,99598.94
2022-08-16T21:51:36.341Z,99596.15
2022-08-16T21:54:05.713Z,99597.73
2022-08-16T21:56:34.576Z,99607.88
2022-08-16T21:59:05.024Z,99603.84
2022-08-16T22:01:33.783Z,99601.39
2022-08-16T22:04:36.874Z,99604.85
2022-08-16T22:06:34.598Z,99608.41
2022-08-16T22:09:04.022Z,99607.58
2022-08-16T22:11:32.850Z,99606.42
2022-08-16T22:14:01.667Z,99613.83
2022-08-16T22:16:31.925Z,99613.41
2022-08-16T22:19:01.428Z,99621.31
2022-08-16T22:21:30.857Z,99626.57
2022-08-16T22:23:59.747Z,99624.39
2022-08-16T22:26:30.888Z,99621.42
2022-08-16T22:29:04.674Z,99623.50
2022-08-16T22:31:34.009Z,99623.08
2022-08-16T22:34:03.326Z,99625.43
2022-08-16T22:36:34.243Z,99620.25
2022-08-16T22:39:04.769Z,99630.68
2022-08-16T22:41:34.501Z,99628.69
2022-08-16T22:44:04.083Z,99632.89
2022-08-16T22:46:34.966Z,99639.31
2022-08-16T22:49:04.740Z,99634.53
2022-08-16T22:51:33.729Z,99633.25
2022-08-16T22:54:34.231Z,99631.44
2022-08-16T22:56:33.362Z,99632.09
2022-08-16T22:59:02.105Z,99631.47
2022-08-16T23:01:31.315Z,99633.17
2022-08-16T23:04:00.715Z,99630.13
2022-08-16T23:06:29.938Z,99627.77
2022-08-16T23:08:58.771Z,99631.80
2022-08-16T23:11:27.519Z,99623.78
2022-08-16T23:13:57.272Z,99629.45
2022-08-16T23:16:32.399Z,99627.58
2022-08-16T23:18:57.520Z,99628.29
2022-08-16T23:21:26.587Z,99626.47
2022-08-16T23:23:55.491Z,99628.17
2022-08-16T23:26:43.954Z,99625.34
2022-08-16T23:28:55.614Z,99629.84
2022-08-16T23:31:25.399Z,99626.09
2022-08-16T23:33:54.123Z,99619.80
2022-08-16T23:36:22.855Z,99621.38
2022-08-16T23:38:51.603Z,99620.25
2022-08-16T23:41:20.398Z,99618.13
2022-08-16T23:43:49.148Z,99624.41
2022-08-16T23:46:20.490Z,99627.39
2022-08-16T23:49:56.958Z,99627.89
2022-08-16T23:51:19.811Z,99638.36
2022-08-16T23:53:48.613Z,99634.02
2022-08-16T23:56:18.858Z,99637.20
2022-08-16T23:58:49.102Z,99635.36
